createdAt,value
2019-04-01T00:01:25.632Z,1.90
2019-04-01T00:03:55.085Z,1.30
2019-04-01T00:06:24.661Z,1.50
2019-04-01T00:08:54.161Z,0.87
2019-04-01T00:11:23.606Z,1.23
2019-04-01T00:13:52.910Z,1.07
2019-04-01T00:16:22.294Z,1.00
2019-04-01T00:19:02.385Z,1.27
2019-04-01T00:21:22.849Z,1.93
2019-04-01T00:23:52.210Z,1.17
2019-04-01T00:26:21.558Z,1.27
2019-04-01T00:28:50.912Z,1.43
2019-04-01T00:31:20.262Z,1.33
2019-04-01T00:33:49.695Z,1.20
2019-04-01T00:36:19.028Z,1.27
2019-04-01T00:38:48.411Z,1.47
2019-04-01T00:41:17.838Z,1.20
2019-04-01T00:43:54.421Z,1.03
2019-04-01T00:46:24.235Z,1.53
2019-04-01T00:48:53.795Z,1.10
2019-04-01T00:51:23.212Z,1.10
2019-04-01T00:53:52.635Z,1.13
2019-04-01T00:56:22.165Z,1.10
2019-04-01T00:58:51.600Z,1.20
2019-04-01T01:01:20.961Z,1.10
2019-04-01T01:03:50.441Z,1.00
2019-04-01T01:06:19.907Z,1.40
2019-04-01T01:08:49.341Z,1.03
2019-04-01T01:11:18.684Z,1.20
2019-04-01T01:13:48.033Z,1.47
2019-04-01T01:16:17.474Z,1.40
2019-04-01T01:18:46.891Z,1.80
2019-04-01T01:21:16.243Z,1.23
2019-04-01T01:23:45.672Z,1.60
2019-04-01T01:26:15.071Z,1.50
2019-04-01T01:28:44.418Z,1.17
2019-04-01T01:31:13.780Z,1.47
2019-04-01T01:33:43.255Z,1.20
2019-04-01T01:36:12.726Z,2.10
2019-04-01T01:38:42.208Z,1.50
2019-04-01T01:41:11.619Z,1.77
2019-04-01T01:43:41.100Z,2.00
2019-04-01T01:46:10.608Z,1.20
2019-04-01T01:48:40.014Z,1.87
2019-04-01T01:51:09.455Z,1.00
2019-04-01T01:53:41.494Z,1.73
2019-04-01T01:56:09.976Z,1.60
2019-04-01T01:58:39.380Z,1.60
2019-04-01T02:01:08.750Z,1.23
2019-04-01T02:03:38.086Z,1.50
2019-04-01T02:06:07.472Z,1.17
2019-04-01T02:08:36.837Z,1.70
2019-04-01T02:11:06.219Z,1.20
2019-04-01T02:13:35.606Z,1.30
2019-04-01T02:16:05.004Z,1.23
2019-04-01T02:18:34.375Z,1.00
2019-04-01T02:21:03.837Z,1.53
2019-04-01T02:23:33.220Z,1.10
2019-04-01T02:26:03.252Z,1.30
2019-04-01T02:28:32.668Z,1.63
2019-04-01T02:31:02.107Z,1.17
2019-04-01T02:33:31.464Z,1.43
2019-04-01T02:36:00.857Z,1.33
2019-04-01T02:38:30.281Z,1.00
2019-04-01T02:41:01.390Z,1.20
2019-04-01T02:43:30.779Z,1.73
2019-04-01T02:46:00.156Z,2.37
2019-04-01T02:48:29.606Z,1.60
2019-04-01T02:50:59.081Z,1.20
2019-04-01T02:53:28.507Z,1.77
2019-04-01T02:55:57.866Z,1.23
2019-04-01T02:58:27.361Z,1.30
2019-04-01T03:00:56.864Z,1.43
2019-04-01T03:03:26.312Z,1.30
2019-04-01T03:05:55.705Z,1.10
2019-04-01T03:08:25.153Z,1.33
2019-04-01T03:10:54.578Z,1.00
2019-04-01T03:13:23.981Z,1.30
2019-04-01T03:15:53.345Z,1.53
2019-04-01T03:18:22.694Z,1.27
2019-04-01T03:20:52.025Z,2.40
2019-04-01T03:23:21.399Z,1.23
2019-04-01T03:25:50.825Z,1.53
2019-04-01T03:28:20.313Z,1.27
2019-04-01T03:30:50.918Z,1.23
2019-04-01T03:33:20.313Z,1.30
2019-04-01T03:35:49.968Z,1.40
2019-04-01T03:38:19.396Z,1.30
2019-04-01T03:40:48.748Z,1.33
2019-04-01T03:43:18.245Z,0.80
2019-04-01T03:45:47.601Z,1.67
2019-04-01T03:48:17.028Z,4.33
2019-04-01T03:50:46.444Z,1.50
2019-04-01T03:53:15.861Z,1.70
2019-04-01T03:55:45.922Z,1.40
2019-04-01T03:58:16.683Z,1.53
2019-04-01T04:19:54.365Z,0.80
2019-04-01T04:22:36.659Z,1.03
2019-04-01T04:25:17.994Z,1.30
2019-04-01T04:27:47.788Z,1.27
2019-04-01T04:30:20.293Z,1.40
2019-04-01T04:32:49.708Z,1.20
2019-04-01T04:35:19.390Z,1.17
2019-04-01T04:37:48.919Z,1.40
2019-04-01T04:40:18.394Z,0.90
2019-04-01T04:42:47.869Z,0.87
2019-04-01T04:45:17.282Z,0.90
2019-04-01T04:47:46.741Z,1.03
2019-04-01T04:50:16.149Z,1.03
2019-04-01T04:52:45.526Z,2.17
2019-04-01T04:55:14.969Z,0.80
2019-04-01T04:57:44.349Z,1.10
2019-04-01T05:00:13.709Z,1.37
2019-04-01T05:02:43.143Z,1.10
2019-04-01T05:05:12.534Z,1.45
2019-04-01T05:07:42.082Z,1.23
2019-04-01T05:10:11.664Z,1.07
2019-04-01T05:12:41.194Z,1.50
2019-04-01T05:15:10.626Z,1.23
2019-04-01T05:17:39.988Z,1.57
2019-04-01T05:20:09.537Z,1.13
2019-04-01T05:22:40.191Z,1.70
2019-04-01T05:25:09.503Z,1.83
2019-04-01T05:27:39.880Z,1.90
2019-04-01T05:30:09.300Z,1.73
2019-04-01T05:32:39.965Z,1.70
2019-04-01T05:35:09.443Z,1.73
2019-04-01T05:37:38.781Z,1.27
2019-04-01T05:40:08.308Z,1.60
2019-04-01T05:42:37.669Z,1.60
2019-04-01T05:45:07.790Z,1.60
2019-04-01T05:47:41.614Z,1.60
2019-04-01T05:50:11.316Z,1.60
2019-04-01T05:52:40.758Z,1.40
2019-04-01T05:55:10.061Z,1.60
2019-04-01T05:57:39.480Z,1.40
2019-04-01T06:00:11.108Z,1.70
2019-04-01T06:02:40.507Z,1.73
2019-04-01T06:05:09.905Z,1.30
2019-04-01T06:07:39.368Z,1.70
2019-04-01T06:10:08.712Z,2.23
2019-04-01T06:12:38.170Z,2.00
2019-04-01T06:15:07.808Z,1.23
2019-04-01T06:17:37.171Z,1.47
2019-04-01T06:20:06.496Z,1.63
2019-04-01T06:22:35.809Z,1.97
2019-04-01T06:25:05.550Z,2.03
2019-04-01T06:27:34.877Z,1.90
2019-04-01T06:30:04.825Z,1.70
2019-04-01T06:32:34.348Z,1.77
2019-04-01T06:35:03.820Z,1.57
2019-04-01T06:37:33.152Z,1.77
2019-04-01T06:40:02.476Z,1.40
2019-04-01T06:42:31.817Z,1.63
2019-04-01T06:45:01.160Z,2.27
2019-04-01T06:47:30.688Z,2.60
2019-04-01T06:50:00.100Z,1.93
2019-04-01T06:52:29.743Z,1.70
2019-04-01T06:54:59.101Z,2.33
2019-04-01T06:57:28.819Z,1.90
2019-04-01T06:59:58.479Z,2.20
2019-04-01T07:02:27.787Z,1.70
2019-04-01T07:04:57.135Z,1.40
2019-04-01T07:07:26.972Z,2.00
2019-04-01T07:09:56.299Z,1.43
2019-04-01T07:12:25.944Z,2.13
2019-04-01T07:14:55.277Z,2.03
2019-04-01T07:17:24.612Z,1.63
2019-04-01T07:19:53.979Z,1.63
2019-04-01T07:22:23.301Z,1.60
2019-04-01T07:24:53.301Z,1.50
2019-04-01T07:27:22.606Z,1.50
2019-04-01T07:29:51.956Z,2.00
2019-04-01T07:32:21.317Z,1.57
2019-04-01T07:34:50.819Z,1.63
2019-04-01T07:37:20.178Z,1.43
2019-04-01T07:39:49.522Z,1.80
2019-04-01T07:42:18.867Z,1.23
2019-04-01T07:44:48.667Z,1.83
2019-04-01T07:47:18.021Z,1.47
2019-04-01T07:49:47.383Z,1.37
2019-04-01T07:52:16.849Z,1.53
2019-04-01T07:54:46.163Z,1.70
2019-04-01T07:57:15.600Z,1.43
2019-04-01T07:59:44.933Z,1.70
2019-04-01T08:02:14.380Z,2.00
2019-04-01T08:04:44.495Z,1.30
2019-04-01T08:07:13.867Z,1.67
2019-04-01T08:09:43.275Z,1.50
2019-04-01T08:12:12.610Z,1.77
2019-04-01T08:14:41.955Z,2.20
2019-04-01T08:17:11.300Z,1.37
2019-04-01T08:19:40.633Z,1.67
2019-04-01T08:22:09.965Z,1.43
2019-04-01T08:24:39.290Z,2.00
2019-04-01T08:27:08.631Z,1.97
2019-04-01T08:29:37.933Z,2.10
2019-04-01T08:32:07.282Z,1.77
2019-04-01T08:34:36.658Z,1.23
2019-04-01T08:37:06.136Z,2.13
2019-04-01T08:39:35.560Z,1.57
2019-04-01T08:42:04.888Z,2.47
2019-04-01T08:44:34.236Z,1.50
2019-04-01T08:47:03.546Z,1.60
2019-04-01T08:49:32.871Z,1.67
2019-04-01T08:52:02.201Z,1.90
2019-04-01T08:54:31.651Z,1.50
2019-04-01T08:57:00.977Z,1.77
2019-04-01T08:59:30.308Z,1.50
2019-04-01T09:01:59.630Z,2.00
2019-04-01T09:04:29.063Z,1.60
2019-04-01T09:06:58.392Z,1.60
2019-04-01T09:09:29.163Z,1.57
2019-04-01T09:11:59.264Z,1.57
2019-04-01T09:14:28.921Z,1.50
2019-04-01T09:16:58.440Z,1.43
2019-04-01T09:19:27.767Z,1.90
2019-04-01T09:21:57.082Z,1.63
2019-04-01T09:24:26.426Z,1.97
2019-04-01T09:26:55.769Z,1.83
2019-04-01T09:29:25.124Z,2.10
2019-04-01T09:31:54.483Z,2.30
2019-04-01T09:34:23.801Z,1.70
2019-04-01T09:36:53.118Z,1.90
2019-04-01T09:39:22.482Z,1.70
2019-04-01T09:41:51.780Z,1.73
2019-04-01T09:44:30.450Z,1.77
2019-04-01T09:46:52.176Z,1.40
2019-04-01T09:49:21.516Z,2.03
2019-04-01T09:51:50.841Z,1.27
2019-04-01T09:54:20.190Z,1.73
2019-04-01T09:56:49.507Z,1.77
2019-04-01T09:59:18.825Z,1.70
2019-04-01T10:01:48.150Z,1.43
2019-04-01T10:04:17.466Z,1.63
2019-04-01T10:06:46.812Z,1.60
2019-04-01T10:09:16.765Z,1.87
2019-04-01T10:11:46.072Z,2.40
2019-04-01T10:14:15.452Z,1.53
2019-04-01T10:16:45.886Z,1.40
2019-04-01T10:19:15.185Z,1.77
2019-04-01T10:21:45.458Z,1.40
2019-04-01T10:24:15.040Z,1.40
2019-04-01T10:26:44.405Z,2.17
2019-04-01T10:29:13.716Z,2.33
2019-04-01T10:31:43.064Z,2.50
2019-04-01T10:34:12.381Z,2.33
2019-04-01T10:36:41.733Z,1.93
2019-04-01T10:39:11.044Z,2.20
2019-04-01T10:41:40.370Z,2.30
2019-04-01T10:44:09.673Z,1.57
2019-04-01T10:46:40.750Z,1.60
2019-04-01T10:49:10.114Z,2.23
2019-04-01T10:51:39.457Z,2.23
2019-04-01T10:54:08.966Z,2.03
2019-04-01T10:56:38.301Z,2.17
2019-04-01T10:59:07.695Z,1.60
2019-04-01T11:01:37.091Z,1.80
2019-04-01T11:04:06.558Z,1.90
2019-04-01T11:06:35.867Z,3.37
2019-04-01T11:09:08.524Z,2.30
2019-04-01T11:11:37.925Z,2.63
2019-04-01T11:14:07.376Z,3.30
2019-04-01T11:16:36.715Z,2.70
2019-04-01T11:19:06.143Z,2.60
2019-04-01T11:21:35.752Z,2.20
2019-04-01T11:24:07.604Z,1.97
2019-04-01T11:26:36.745Z,3.13
2019-04-01T11:29:06.281Z,1.80
2019-04-01T11:31:35.603Z,1.70
2019-04-01T11:34:04.996Z,1.80
2019-04-01T11:36:34.384Z,1.40
2019-04-01T11:39:05.840Z,2.13
2019-04-01T11:41:35.490Z,1.30
2019-04-01T11:44:04.930Z,2.03
2019-04-01T11:46:34.282Z,1.70
2019-04-01T11:49:03.670Z,1.80
2019-04-01T11:51:38.641Z,1.97
2019-04-01T11:54:07.714Z,2.13
2019-04-01T11:56:35.146Z,2.20
2019-04-01T11:59:04.500Z,1.50
2019-04-01T12:01:36.678Z,1.87
2019-04-01T12:04:04.877Z,1.53
2019-04-01T12:06:34.203Z,1.80
2019-04-01T12:09:04.972Z,1.90
2019-04-01T12:11:34.309Z,1.70
2019-04-01T12:14:05.275Z,1.67
2019-04-01T12:16:34.792Z,1.80
2019-04-01T12:19:04.131Z,1.83
2019-04-01T12:21:33.436Z,1.67
2019-04-01T12:24:02.797Z,1.67
2019-04-01T12:26:32.142Z,2.00
2019-04-01T12:29:01.500Z,1.90
2019-04-01T12:31:30.830Z,1.60
2019-04-01T12:34:00.155Z,2.20
2019-04-01T12:36:29.500Z,1.80
2019-04-01T12:38:58.814Z,1.47
2019-04-01T12:41:28.136Z,1.70
2019-04-01T12:43:57.429Z,2.10
2019-04-01T12:46:26.766Z,2.07
2019-04-01T12:48:56.082Z,1.40
2019-04-01T12:51:25.404Z,1.67
2019-04-01T12:53:54.734Z,2.00
2019-04-01T12:56:24.073Z,1.83
2019-04-01T12:58:53.887Z,1.70
2019-04-01T13:01:24.150Z,1.73
2019-04-01T13:03:53.445Z,2.23
2019-04-01T13:06:22.773Z,2.20
2019-04-01T13:08:52.903Z,1.90
2019-04-01T13:11:23.136Z,2.27
2019-04-01T13:13:52.446Z,2.07
2019-04-01T13:16:21.797Z,2.33
2019-04-01T13:18:51.112Z,2.17
2019-04-01T13:21:20.454Z,2.00
2019-04-01T13:23:49.801Z,1.90
2019-04-01T13:26:19.160Z,1.87
2019-04-01T13:28:48.513Z,2.20
2019-04-01T13:31:17.834Z,1.80
2019-04-01T13:33:47.169Z,2.23
2019-04-01T13:36:16.542Z,2.33
2019-04-01T13:38:45.885Z,1.93
2019-04-01T13:41:15.777Z,1.80
2019-04-01T13:43:45.424Z,2.17
2019-04-01T13:46:14.772Z,2.53
2019-04-01T13:48:57.105Z,2.03
2019-04-01T13:51:15.237Z,2.10
2019-04-01T13:53:44.588Z,2.50
2019-04-01T13:56:13.911Z,2.00
2019-04-01T13:58:43.274Z,2.27
2019-04-01T14:01:12.778Z,1.57
2019-04-01T14:03:42.080Z,2.50
2019-04-01T14:06:11.430Z,2.57
2019-04-01T14:08:40.769Z,2.00
2019-04-01T14:11:10.189Z,1.77
2019-04-01T14:13:39.516Z,2.00
2019-04-01T14:16:09.303Z,2.67
2019-04-01T14:18:38.845Z,2.30
2019-04-01T14:21:16.256Z,2.30
2019-04-01T14:23:39.244Z,2.23
2019-04-01T14:26:08.580Z,1.90
2019-04-01T14:28:38.329Z,2.37
2019-04-01T14:31:08.032Z,2.50
2019-04-01T14:33:37.319Z,2.67
2019-04-01T14:36:06.662Z,2.20
2019-04-01T14:38:35.965Z,2.37
2019-04-01T14:41:05.288Z,2.07
2019-04-01T14:43:34.622Z,2.07
2019-04-01T14:46:03.989Z,1.83
2019-04-01T14:48:33.384Z,2.00
2019-04-01T14:51:02.734Z,2.93
2019-04-01T14:53:32.151Z,2.10
2019-04-01T14:56:01.507Z,2.90
2019-04-01T14:58:30.840Z,2.30
2019-04-01T15:01:01.322Z,2.67
2019-04-01T15:03:30.835Z,2.40
2019-04-01T15:06:00.176Z,2.30
2019-04-01T15:08:29.476Z,2.10
2019-04-01T15:10:58.835Z,2.57
2019-04-01T15:13:28.138Z,2.70
2019-04-01T15:15:57.503Z,2.77
2019-04-01T15:18:26.824Z,2.53
2019-04-01T15:20:56.144Z,2.60
2019-04-01T15:23:27.274Z,2.47
2019-04-01T15:25:56.500Z,2.50
2019-04-01T15:28:25.857Z,2.10
2019-04-01T15:30:55.664Z,2.90
2019-04-01T15:33:25.886Z,1.97
2019-04-01T15:35:55.228Z,2.97
2019-04-01T15:38:24.620Z,3.45
2019-04-01T15:40:53.980Z,3.50
2019-04-01T15:43:23.358Z,2.60
2019-04-01T15:45:52.746Z,2.77
2019-04-01T15:48:22.130Z,3.00
2019-04-01T15:50:51.505Z,2.40
2019-04-01T15:53:23.487Z,2.50
2019-04-01T15:56:06.760Z,2.77
2019-04-01T15:58:36.247Z,2.63
2019-04-01T16:01:05.704Z,2.67
2019-04-01T16:03:35.939Z,2.97
2019-04-01T16:06:07.600Z,2.53
2019-04-01T16:08:36.511Z,2.40
2019-04-01T16:11:05.864Z,3.27
2019-04-01T16:13:37.166Z,2.80
2019-04-01T16:16:07.199Z,2.23
2019-04-01T16:18:36.961Z,2.57
2019-04-01T16:21:06.356Z,2.50
2019-04-01T16:23:35.744Z,2.50
2019-04-01T16:26:05.288Z,2.97
2019-04-01T16:28:34.662Z,2.77
2019-04-01T16:31:04.028Z,3.03
2019-04-01T16:33:33.408Z,2.60
2019-04-01T16:36:02.836Z,2.60
2019-04-01T16:38:32.378Z,2.60
2019-04-01T16:41:01.798Z,2.67
2019-04-01T16:43:31.309Z,2.43
2019-04-01T16:46:00.723Z,2.43
2019-04-01T16:48:30.142Z,2.23
2019-04-01T16:50:59.633Z,2.70
2019-04-01T16:53:29.070Z,3.00
2019-04-01T16:55:58.622Z,2.53
2019-04-01T16:58:28.019Z,3.13
2019-04-01T17:00:57.374Z,2.23
2019-04-01T17:03:27.234Z,2.50
2019-04-01T17:05:56.595Z,2.50
2019-04-01T17:08:25.962Z,2.30
2019-04-01T17:10:55.385Z,2.27
2019-04-01T17:13:24.753Z,2.43
2019-04-01T17:15:54.153Z,3.40
2019-04-01T17:18:23.508Z,3.00
2019-04-01T17:20:52.866Z,2.97
2019-04-01T17:23:22.224Z,2.37
2019-04-01T17:25:51.898Z,2.73
2019-04-01T17:28:21.271Z,3.10
2019-04-01T17:30:50.668Z,2.40
2019-04-01T17:33:20.081Z,2.10
2019-04-01T17:35:49.513Z,2.63
2019-04-01T17:38:18.981Z,2.90
2019-04-01T17:40:48.364Z,2.30
2019-04-01T17:43:17.679Z,2.67
2019-04-01T17:45:47.037Z,2.83
2019-04-01T17:48:16.360Z,2.70
2019-04-01T17:50:45.741Z,2.10
2019-04-01T17:53:15.228Z,2.47
2019-04-01T17:55:45.755Z,2.43
2019-04-01T17:58:15.828Z,2.47
2019-04-01T18:00:50.016Z,2.47
2019-04-01T18:03:19.394Z,2.63
2019-04-01T18:05:48.776Z,2.60
2019-04-01T18:08:18.185Z,2.40
2019-04-01T18:10:48.882Z,2.47
2019-04-01T18:13:18.449Z,2.60
2019-04-01T18:15:47.785Z,2.40
2019-04-01T18:18:26.754Z,2.77
2019-04-01T18:20:48.201Z,2.67
2019-04-01T18:23:17.553Z,2.83
2019-04-01T18:25:46.941Z,2.20
2019-04-01T18:28:16.288Z,2.60
2019-04-01T18:30:45.693Z,2.90
2019-04-01T18:33:15.057Z,2.60
2019-04-01T18:35:44.925Z,2.40
2019-04-01T18:38:14.521Z,1.77
2019-04-01T18:40:43.881Z,1.67
2019-04-01T18:43:13.260Z,2.27
2019-04-01T18:45:42.736Z,2.40
2019-04-01T18:48:14.617Z,3.03
2019-04-01T18:50:43.534Z,2.27
2019-04-01T18:53:12.936Z,2.70
2019-04-01T18:55:42.299Z,2.40
2019-04-01T18:58:11.673Z,2.70
2019-04-01T19:00:41.144Z,3.10
2019-04-01T19:03:10.707Z,2.43
2019-04-01T19:05:40.458Z,2.73
2019-04-01T19:08:09.838Z,2.40
2019-04-01T19:10:39.525Z,2.30
2019-04-01T19:13:12.369Z,2.40
2019-04-01T19:15:41.981Z,3.30
2019-04-01T19:18:11.851Z,2.63
2019-04-01T19:20:55.386Z,2.27
2019-04-01T19:23:12.369Z,2.60
2019-04-01T19:25:41.744Z,3.43
2019-04-01T19:28:11.186Z,2.20
2019-04-01T19:30:40.577Z,2.80
2019-04-01T19:33:10.077Z,2.60
2019-04-01T19:35:39.573Z,2.80
2019-04-01T19:38:09.152Z,2.80
2019-04-01T19:40:38.596Z,2.50
2019-04-01T19:43:08.055Z,2.80
2019-04-01T19:45:37.512Z,2.10
2019-04-01T19:48:06.945Z,2.20
2019-04-01T19:50:36.346Z,2.33
2019-04-01T19:53:05.781Z,2.67
2019-04-01T19:55:35.200Z,2.80
2019-04-01T19:58:05.179Z,2.43
2019-04-01T20:00:34.885Z,2.73
2019-04-01T20:03:04.320Z,2.40
2019-04-01T20:05:33.725Z,1.93
2019-04-01T20:08:03.108Z,2.20
2019-04-01T20:10:32.501Z,2.33
2019-04-01T20:13:01.859Z,2.40
2019-04-01T20:15:31.252Z,2.30
2019-04-01T20:18:00.605Z,2.20
2019-04-01T20:20:31.030Z,2.63
2019-04-01T20:23:00.682Z,3.40
2019-04-01T20:25:30.069Z,2.70
2019-04-01T20:27:59.607Z,2.17
2019-04-01T20:30:29.013Z,3.17
2019-04-01T20:32:58.388Z,2.13
2019-04-01T20:35:28.357Z,2.47
2019-04-01T20:37:58.335Z,2.70
2019-04-01T20:40:27.938Z,3.20
2019-04-01T20:42:57.279Z,2.30
2019-04-01T20:45:26.655Z,3.33
2019-04-01T20:47:56.072Z,2.60
2019-04-01T20:50:25.524Z,2.37
2019-04-01T20:52:54.935Z,2.93
2019-04-01T20:55:24.286Z,2.43
2019-04-01T20:57:53.662Z,2.43
2019-04-01T21:00:23.550Z,2.70
2019-04-01T21:02:53.001Z,3.13
2019-04-01T21:05:23.161Z,2.60
2019-04-01T21:07:53.571Z,3.10
2019-04-01T21:10:22.966Z,2.93
2019-04-01T21:12:52.328Z,2.83
2019-04-01T21:15:21.804Z,2.93
2019-04-01T21:17:52.041Z,2.80
2019-04-01T21:20:21.732Z,3.40
2019-04-01T21:22:51.081Z,2.63
2019-04-01T21:25:20.427Z,3.03
2019-04-01T21:27:49.803Z,3.57
2019-04-01T21:30:20.135Z,2.77
2019-04-01T21:32:49.898Z,3.20
2019-04-01T21:35:19.240Z,3.53
2019-04-01T21:37:48.597Z,3.50
2019-04-01T21:40:17.960Z,3.07
2019-04-01T21:42:47.317Z,2.63
2019-04-01T21:45:16.834Z,3.07
2019-04-01T21:47:46.345Z,3.07
2019-04-01T21:50:15.858Z,3.50
2019-04-01T21:52:45.192Z,3.23
2019-04-01T21:55:14.754Z,3.93
2019-04-01T21:57:44.078Z,2.67
2019-04-01T22:00:19.734Z,3.47
2019-04-01T22:02:49.083Z,3.93
2019-04-01T22:05:18.495Z,3.50
2019-04-01T22:07:47.882Z,3.10
2019-04-01T22:10:17.404Z,2.77
2019-04-01T22:12:46.782Z,3.27
2019-04-01T22:15:18.671Z,3.93
2019-04-01T22:17:47.307Z,3.43
2019-04-01T22:20:16.693Z,3.07
2019-04-01T22:22:46.013Z,3.20
2019-04-01T22:25:15.358Z,3.67
2019-04-01T22:27:44.673Z,4.23
2019-04-01T22:30:14.033Z,3.10
2019-04-01T22:32:43.427Z,4.00
2019-04-01T22:35:12.847Z,3.63
2019-04-01T22:37:42.239Z,3.60
2019-04-01T22:40:11.732Z,3.47
2019-04-01T22:42:41.101Z,3.43
2019-04-01T22:45:10.610Z,3.90
2019-04-01T22:47:39.969Z,3.00
2019-04-01T22:50:10.271Z,4.23
2019-04-01T22:52:42.119Z,3.37
2019-04-01T22:55:11.152Z,3.97
2019-04-01T22:57:40.503Z,3.57
2019-04-01T23:00:09.868Z,3.80
2019-04-01T23:02:39.221Z,4.47
2019-04-01T23:05:08.974Z,3.93
2019-04-01T23:07:38.359Z,3.40
2019-04-01T23:10:07.957Z,4.17
2019-04-01T23:12:37.345Z,3.50
2019-04-01T23:15:07.246Z,3.97
2019-04-01T23:17:38.298Z,4.07
2019-04-01T23:20:07.961Z,3.73
2019-04-01T23:22:37.292Z,3.93
2019-04-01T23:25:06.848Z,3.77
2019-04-01T23:27:36.235Z,3.93
2019-04-01T23:30:07.939Z,3.83
2019-04-01T23:32:37.315Z,3.70
2019-04-01T23:35:06.831Z,3.83
2019-04-01T23:37:36.190Z,3.30
2019-04-01T23:40:06.118Z,3.80
2019-04-01T23:42:37.693Z,4.20
2019-04-01T23:45:07.139Z,4.40
2019-04-01T23:47:36.523Z,3.63
2019-04-01T23:50:07.076Z,3.60
2019-04-01T23:52:36.463Z,3.40
2019-04-01T23:55:06.217Z,3.67
2019-04-01T23:57:35.600Z,3.73
